Time;durP1;ratioP1;P1;durP2;ratioP2;P2;SDS_P1;SDS_P2;PMS_P1;PMS_P2;Temp;Humidity;BMP_temperature;BMP_pressure;BME280_temperature;BME280_humidity;BME280_pressure;Samples;Min_cycle;Max_cycle;Signal;HPM_P1;HPM_P2
2022/08/19 00:01:48;;;;;;;7.23;5.80;;;18.80;1.00;;;;;;5074543;28;20259;-63
2022/08/19 00:04:18;;;;;;;6.60;5.90;;;18.70;1.00;;;;;;5074237;28;20205;-63
2022/08/19 00:06:47;;;;;;;6.43;5.50;;;18.70;1.00;;;;;;5074683;28;20631;-64
2022/08/19 00:09:16;;;;;;;11.63;6.63;;;18.60;1.00;;;;;;5074266;28;20208;-65
2022/08/19 00:11:43;;;;;;;7.50;5.83;;;18.60;1.00;;;;;;5074208;28;20700;-63
2022/08/19 00:14:13;;;;;;;7.50;6.13;;;18.60;1.00;;;;;;5074161;28;20274;-63
2022/08/19 00:16:42;;;;;;;8.00;5.77;;;18.70;7.50;;;;;;5074013;28;20209;-64
2022/08/19 00:19:10;;;;;;;9.37;6.77;;;18.60;12.90;;;;;;5074068;28;20204;-63
2022/08/19 00:21:39;;;;;;;8.13;5.90;;;18.60;15.40;;;;;;5074171;28;20204;-63
2022/08/19 00:24:06;;;;;;;6.90;6.20;;;18.60;16.50;;;;;;5074096;28;20212;-63
2022/08/19 00:26:33;;;;;;;6.57;5.87;;;18.60;17.00;;;;;;5073777;28;20699;-63
2022/08/19 00:29:00;;;;;;;8.17;5.83;;;18.50;16.90;;;;;;5073883;28;20216;-63
2022/08/19 00:31:28;;;;;;;6.30;5.70;;;18.50;16.60;;;;;;5073485;28;20263;-63
2022/08/19 00:33:55;;;;;;;7.57;6.27;;;18.50;16.00;;;;;;5073598;28;20252;-63
2022/08/19 00:36:22;;;;;;;8.90;6.17;;;18.50;14.60;;;;;;5073392;28;20668;-63
2022/08/19 00:38:51;;;;;;;9.13;6.40;;;18.50;15.10;;;;;;5073579;28;20258;-63
2022/08/19 00:41:21;;;;;;;10.00;6.47;;;18.40;15.10;;;;;;5073952;28;20241;-63
2022/08/19 00:43:59;;;;;;;6.57;5.87;;;18.30;16.60;;;;;;5073109;28;20730;-63
2022/08/19 00:46:25;;;;;;;7.47;6.30;;;18.30;20.30;;;;;;5072952;28;20359;-63
2022/08/19 00:48:54;;;;;;;8.13;6.20;;;18.30;24.50;;;;;;5073532;28;20212;-63
2022/08/19 00:51:22;;;;;;;8.13;5.97;;;18.30;28.70;;;;;;5073316;28;20225;-63
2022/08/19 00:53:49;;;;;;;7.47;6.47;;;18.20;31.90;;;;;;5073497;28;20264;-63
2022/08/19 00:56:16;;;;;;;6.97;6.27;;;18.20;34.50;;;;;;5073243;28;20278;-63
2022/08/19 00:58:44;;;;;;;7.47;6.27;;;18.20;37.70;;;;;;5073552;28;20299;-63
2022/08/19 01:01:11;;;;;;;9.33;6.00;;;18.20;41.20;;;;;;5073254;28;20664;-63
2022/08/19 01:03:38;;;;;;;7.67;6.30;;;18.20;44.30;;;;;;5074234;28;20717;-63
2022/08/19 01:06:06;;;;;;;7.73;6.77;;;18.10;46.70;;;;;;5073881;28;20290;-63
2022/08/19 01:08:34;;;;;;;7.67;6.57;;;18.10;49.50;;;;;;5073979;28;20258;-63
2022/08/19 01:11:01;;;;;;;9.77;6.60;;;18.10;49.60;;;;;;5073303;28;20670;-63
2022/08/19 01:13:32;;;;;;;8.97;6.47;;;18.10;50.10;;;;;;5072997;28;20225;-63
2022/08/19 01:16:03;;;;;;;7.97;6.40;;;18.00;52.40;;;;;;5072749;28;20292;-62
2022/08/19 01:18:31;;;;;;;8.60;6.10;;;18.00;54.60;;;;;;5072914;28;20200;-62
2022/08/19 01:21:05;;;;;;;8.97;6.47;;;18.00;57.30;;;;;;5072800;28;20225;-63
2022/08/19 01:23:43;;;;;;;9.47;7.27;;;18.00;61.30;;;;;;5072666;28;20228;-63
2022/08/19 01:26:12;;;;;;;9.60;6.70;;;17.90;67.10;;;;;;5072328;28;20232;-63
2022/08/19 01:28:39;;;;;;;11.63;7.23;;;17.90;73.80;;;;;;5072982;28;20254;-63
2022/08/19 01:31:07;;;;;;;9.43;7.50;;;17.80;81.00;;;;;;5072690;28;20208;-62
2022/08/19 01:33:33;;;;;;;10.00;7.87;;;17.80;90.80;;;;;;5072641;28;20600;-63
2022/08/19 01:36:09;;;;;;;9.53;8.43;;;17.80;96.00;;;;;;5072509;28;20205;-63
2022/08/19 01:38:41;;;;;;;13.73;9.67;;;17.80;99.90;;;;;;5072400;28;20201;-62
2022/08/19 01:41:08;;;;;;;13.60;9.30;;;17.80;99.90;;;;;;5072838;28;20240;-63
2022/08/19 01:43:34;;;;;;;14.43;9.40;;;17.70;99.90;;;;;;5071740;28;20225;-63
2022/08/19 01:46:03;;;;;;;13.60;9.00;;;17.70;99.90;;;;;;5072358;28;20619;-63
2022/08/19 01:48:34;;;;;;;10.20;9.13;;;17.80;99.90;;;;;;5072286;28;20580;-62
2022/08/19 01:51:01;;;;;;;12.13;9.87;;;17.80;99.90;;;;;;5072245;28;20254;-63
2022/08/19 01:53:27;;;;;;;10.63;8.80;;;17.80;99.90;;;;;;5072385;28;20386;-63
2022/08/19 01:55:55;;;;;;;13.50;8.77;;;17.70;99.90;;;;;;5072017;28;20259;-62
2022/08/19 01:58:27;;;;;;;10.90;8.73;;;17.70;99.90;;;;;;5072169;28;20209;-63
2022/08/19 02:00:54;;;;;;;10.07;8.00;;;17.70;99.90;;;;;;5072376;28;20212;-62
2022/08/19 02:03:21;;;;;;;11.00;8.40;;;17.70;99.90;;;;;;5071774;28;20221;-63
2022/08/19 02:05:48;;;;;;;9.57;7.97;;;17.70;99.90;;;;;;5071990;28;20212;-62
2022/08/19 02:08:14;;;;;;;8.70;7.80;;;17.70;99.90;;;;;;5071719;28;20204;-62
2022/08/19 02:10:44;;;;;;;9.73;8.43;;;17.70;99.90;;;;;;5072226;28;20205;-62
2022/08/19 02:13:14;;;;;;;11.77;8.60;;;17.70;99.90;;;;;;5071805;28;20282;-63
2022/08/19 02:15:40;;;;;;;11.20;9.07;;;17.70;99.90;;;;;;5072117;28;20291;-62
2022/08/19 02:18:08;;;;;;;10.20;8.60;;;17.70;99.90;;;;;;5071753;28;20200;-62
2022/08/19 02:20:36;;;;;;;10.00;9.00;;;17.60;99.90;;;;;;5071989;28;20217;-62
2022/08/19 02:23:03;;;;;;;11.63;9.53;;;17.60;99.90;;;;;;5072078;28;20223;-63
2022/08/19 02:25:29;;;;;;;12.23;9.63;;;17.60;99.90;;;;;;5072058;28;20208;-63
2022/08/19 02:27:56;;;;;;;11.00;9.30;;;17.60;99.90;;;;;;5071610;28;20201;-62
2022/08/19 02:30:25;;;;;;;11.27;9.83;;;17.50;99.90;;;;;;5072029;28;20612;-63
2022/08/19 02:32:52;;;;;;;10.23;8.90;;;17.50;99.90;;;;;;5071731;28;20683;-63
2022/08/19 02:35:20;;;;;;;12.77;9.50;;;17.50;99.90;;;;;;5071610;28;20204;-63
2022/08/19 02:40:34;;;;;;;11.70;9.77;;;17.50;99.90;;;;;;5071779;28;20200;-63
2022/08/19 02:43:01;;;;;;;16.40;10.23;;;17.50;99.90;;;;;;5071689;28;20216;-62
2022/08/19 02:45:32;;;;;;;15.37;9.60;;;17.50;99.90;;;;;;5071783;28;20215;-63
2022/08/19 02:47:59;;;;;;;13.20;9.27;;;17.50;99.90;;;;;;5071805;28;20258;-62
2022/08/19 02:50:26;;;;;;;13.37;10.37;;;17.50;99.90;;;;;;5071403;28;20208;-62
2022/08/19 02:52:53;;;;;;;12.83;9.67;;;17.50;99.90;;;;;;5071581;28;20237;-63
2022/08/19 02:55:20;;;;;;;13.23;10.67;;;17.50;99.90;;;;;;5075679;28;20208;-63
2022/08/19 02:57:47;;;;;;;17.27;12.00;;;17.40;99.90;;;;;;5074935;28;20205;-63
2022/08/19 03:00:14;;;;;;;14.73;12.13;;;17.40;99.90;;;;;;5075952;28;20296;-63
2022/08/19 03:02:42;;;;;;;15.40;11.33;;;17.40;99.90;;;;;;5075607;28;20632;-64
2022/08/19 03:05:10;;;;;;;17.77;11.60;;;17.50;99.90;;;;;;5075632;28;20565;-64
2022/08/19 03:07:37;;;;;;;15.47;12.30;;;17.50;99.90;;;;;;5075122;28;20213;-64
2022/08/19 03:10:05;;;;;;;14.30;11.50;;;17.50;99.90;;;;;;5075290;28;20205;-64
2022/08/19 03:12:32;;;;;;;17.00;11.53;;;17.50;99.90;;;;;;5075513;28;20258;-63
2022/08/19 03:15:00;;;;;;;16.50;11.93;;;17.60;99.90;;;;;;5075318;28;20741;-62
2022/08/19 03:17:27;;;;;;;16.53;12.67;;;17.50;99.90;;;;;;5075235;28;20201;-62
2022/08/19 03:19:55;;;;;;;16.07;11.70;;;17.50;99.90;;;;;;5075731;28;20216;-63
2022/08/19 03:22:22;;;;;;;14.33;10.90;;;17.50;99.90;;;;;;5074968;28;20225;-63
2022/08/19 03:24:48;;;;;;;15.80;10.73;;;17.50;99.90;;;;;;5075213;28;20266;-63
2022/08/19 03:27:15;;;;;;;15.00;11.80;;;17.50;99.90;;;;;;5075180;28;20258;-62
2022/08/19 03:29:41;;;;;;;17.57;11.23;;;17.50;99.90;;;;;;5074978;28;20691;-63
2022/08/19 03:32:08;;;;;;;16.20;11.17;;;17.50;99.90;;;;;;5074802;28;20240;-63
2022/08/19 03:34:37;;;;;;;13.97;10.67;;;17.50;99.90;;;;;;5075106;28;20205;-62
2022/08/19 03:37:08;;;;;;;11.80;10.10;;;17.50;99.90;;;;;;5074727;28;20211;-64
2022/08/19 03:39:37;;;;;;;12.40;10.67;;;17.50;99.90;;;;;;5074879;28;20254;-63
2022/08/19 03:42:05;;;;;;;14.13;11.43;;;17.40;99.90;;;;;;5074963;28;20266;-63
2022/08/19 03:44:32;;;;;;;13.80;10.30;;;17.40;99.90;;;;;;5074874;28;20579;-62
2022/08/19 03:47:00;;;;;;;16.57;10.43;;;17.40;99.90;;;;;;5074561;28;20254;-63
2022/08/19 03:49:29;;;;;;;16.57;11.10;;;17.40;99.90;;;;;;5074496;28;20209;-61
2022/08/19 03:51:57;;;;;;;13.97;10.63;;;17.40;99.90;;;;;;5074631;28;20262;-62
2022/08/19 03:54:26;;;;;;;12.70;10.60;;;17.40;99.90;;;;;;5074986;28;20295;-62
2022/08/19 03:56:54;;;;;;;13.33;11.30;;;17.40;99.90;;;;;;5074419;28;20209;-63
2022/08/19 03:59:25;;;;;;;13.40;11.67;;;17.30;99.90;;;;;;5074480;28;20259;-63
2022/08/19 04:01:52;;;;;;;15.83;12.10;;;17.30;99.90;;;;;;5074624;28;20209;-62
2022/08/19 04:04:19;;;;;;;16.07;12.83;;;17.20;99.90;;;;;;5074235;28;20258;-61
2022/08/19 04:06:47;;;;;;;17.10;12.20;;;17.30;99.90;;;;;;5073620;28;20217;-61
2022/08/19 04:09:14;;;;;;;15.63;12.43;;;17.20;99.90;;;;;;5074212;28;20689;-61
2022/08/19 04:11:44;;;;;;;17.07;12.20;;;17.20;99.90;;;;;;5074147;28;20752;-61
2022/08/19 04:14:14;;;;;;;21.87;14.20;;;17.10;99.90;;;;;;5074163;28;20224;-61
2022/08/19 04:16:41;;;;;;;16.47;12.70;;;17.20;99.90;;;;;;5074063;28;20278;-61
2022/08/19 04:19:08;;;;;;;15.20;12.63;;;17.10;99.90;;;;;;5074165;28;20236;-61
2022/08/19 04:21:35;;;;;;;16.17;12.60;;;17.20;99.90;;;;;;5074173;28;20216;-61
2022/08/19 04:24:02;;;;;;;17.20;14.43;;;17.20;99.90;;;;;;5074008;28;20699;-61
2022/08/19 04:26:32;;;;;;;21.17;14.53;;;17.20;99.90;;;;;;5073843;28;20262;-61
2022/08/19 04:29:01;;;;;;;20.90;14.47;;;17.20;99.90;;;;;;5074178;28;20212;-62
2022/08/19 04:31:32;;;;;;;18.30;14.37;;;17.20;99.90;;;;;;5073851;28;20230;-61
2022/08/19 04:34:01;;;;;;;19.53;14.57;;;17.20;99.90;;;;;;5074071;28;20244;-60
2022/08/19 04:36:30;;;;;;;16.63;13.20;;;17.20;99.90;;;;;;5073644;28;20694;-57
2022/08/19 04:38:59;;;;;;;17.90;13.47;;;17.20;99.90;;;;;;5074145;28;20627;-58
2022/08/19 04:44:13;;;;;;;17.40;12.43;;;17.30;99.90;;;;;;5073607;28;20250;-59
2022/08/19 04:46:41;;;;;;;15.27;11.80;;;17.30;99.90;;;;;;5073259;28;20213;-61
2022/08/19 04:49:08;;;;;;;15.90;13.23;;;17.40;99.90;;;;;;5073735;28;20213;-61
2022/08/19 04:51:36;;;;;;;18.90;13.27;;;17.40;99.90;;;;;;5073637;28;20288;-58
2022/08/19 04:54:04;;;;;;;21.70;14.30;;;17.40;99.90;;;;;;5073277;28;20314;-61
2022/08/19 04:56:31;;;;;;;16.60;12.33;;;17.50;99.90;;;;;;5073029;28;20322;-61
2022/08/19 04:58:58;;;;;;;17.57;14.13;;;17.50;99.90;;;;;;5073345;28;20262;-61
2022/08/19 05:01:29;;;;;;;18.23;13.53;;;17.50;99.90;;;;;;5073217;28;20204;-62
2022/08/19 05:03:57;;;;;;;17.13;13.30;;;17.60;99.90;;;;;;5073793;28;20614;-62
2022/08/19 05:06:25;;;;;;;17.87;13.57;;;17.60;99.90;;;;;;5073104;28;20204;-62
2022/08/19 05:08:52;;;;;;;23.23;14.90;;;17.60;99.90;;;;;;5072960;28;20689;-62
2022/08/19 05:11:22;;;;;;;34.47;24.00;;;17.70;99.90;;;;;;5073355;28;20278;-62
2022/08/19 05:13:49;;;;;;;24.33;16.57;;;17.70;99.90;;;;;;5072892;28;20707;-62
2022/08/19 05:16:17;;;;;;;18.03;14.33;;;17.70;99.90;;;;;;5072463;28;20205;-62
2022/08/19 05:24:16;;;;;;;20.13;13.47;;;17.80;99.90;;;;;;5072970;28;20200;-61
2022/08/19 05:26:46;;;;;;;20.87;15.23;;;17.80;99.90;;;;;;5072573;28;20205;-62
2022/08/19 05:29:14;;;;;;;19.63;14.07;;;17.80;99.90;;;;;;5073011;28;20299;-61
2022/08/19 05:31:41;;;;;;;19.73;14.97;;;17.90;99.90;;;;;;5072553;28;20212;-61
2022/08/19 05:34:10;;;;;;;21.37;15.97;;;18.10;99.90;;;;;;5072397;28;20317;-58
2022/08/19 05:36:39;;;;;;;23.70;16.63;;;18.20;99.90;;;;;;5072679;28;20641;-61
2022/08/19 05:39:07;;;;;;;25.87;16.03;;;18.40;99.90;;;;;;5072672;28;20273;-59
2022/08/19 05:41:33;;;;;;;23.83;16.70;;;18.50;99.90;;;;;;5072601;28;20630;-61
2022/08/19 05:44:05;;;;;;;25.53;15.73;;;18.50;99.90;;;;;;5072245;28;20221;-61
2022/08/19 05:46:32;;;;;;;24.03;15.90;;;18.70;99.90;;;;;;5072287;28;20657;-56
2022/08/19 05:48:59;;;;;;;24.83;16.00;;;18.80;94.10;;;;;;5072362;28;20216;-61
2022/08/19 05:51:27;;;;;;;20.57;15.20;;;19.00;75.90;;;;;;5072318;28;20259;-61
2022/08/19 05:53:54;;;;;;;20.07;13.63;;;19.20;53.90;;;;;;5072441;28;20271;-59
2022/08/19 05:56:20;;;;;;;18.23;14.17;;;19.20;36.70;;;;;;5072018;28;20208;-61
2022/08/19 05:58:47;;;;;;;18.10;13.13;;;19.30;24.60;;;;;;5071962;28;20299;-61
2022/08/19 06:01:16;;;;;;;18.63;13.07;;;19.30;22.70;;;;;;5072171;28;20615;-62
2022/08/19 06:03:43;;;;;;;15.90;11.77;;;19.30;22.30;;;;;;5072035;28;20913;-61
2022/08/19 06:06:13;;;;;;;18.60;13.83;;;19.30;20.90;;;;;;5072153;28;20209;-59
2022/08/19 06:08:42;;;;;;;17.97;13.23;;;19.30;19.90;;;;;;5072012;28;20252;-62
2022/08/19 06:11:18;;;;;;;19.17;13.23;;;19.50;15.60;;;;;;5072058;28;20240;-62
2022/08/19 06:13:47;;;;;;;17.17;12.87;;;19.50;8.70;;;;;;5072243;28;20289;-61
2022/08/19 06:16:22;;;;;;;19.87;13.07;;;19.60;3.70;;;;;;5072056;28;20581;-62
2022/08/19 06:18:51;;;;;;;17.37;13.60;;;19.60;1.00;;;;;;5072777;28;20215;-62
2022/08/19 06:21:19;;;;;;;18.63;13.50;;;19.70;1.00;;;;;;5071931;28;20258;-62
2022/08/19 06:23:48;;;;;;;18.40;13.23;;;19.70;1.00;;;;;;5071722;28;20315;-62
2022/08/19 06:26:16;;;;;;;20.67;13.90;;;19.80;1.00;;;;;;5071773;28;20551;-62
2022/08/19 06:28:46;;;;;;;20.10;13.67;;;19.90;1.00;;;;;;5071362;28;20670;-62
2022/08/19 06:31:14;;;;;;;18.30;13.50;;;19.90;1.00;;;;;;5071757;28;20213;-62
2022/08/19 06:33:41;;;;;;;16.53;12.13;;;20.00;1.00;;;;;;5071753;28;20240;-62
2022/08/19 06:36:16;;;;;;;18.53;14.47;;;20.00;1.00;;;;;;5071450;28;20741;-61
2022/08/19 06:38:43;;;;;;;22.10;15.20;;;20.10;1.00;;;;;;5071982;28;20204;-61
2022/08/19 06:41:11;;;;;;;19.10;14.13;;;20.10;1.00;;;;;;5071914;28;20243;-61
2022/08/19 06:43:37;;;;;;;22.73;15.30;;;20.30;1.00;;;;;;5071753;28;20225;-59
2022/08/19 06:46:08;;;;;;;24.03;15.87;;;20.30;1.00;;;;;;5071654;28;20216;-62
2022/08/19 06:48:35;;;;;;;25.27;16.50;;;20.40;1.00;;;;;;5071972;28;20238;-58
2022/08/19 06:51:03;;;;;;;25.23;16.57;;;20.50;1.00;;;;;;5071549;28;20205;-61
2022/08/19 06:53:30;;;;;;;22.73;16.87;;;20.60;1.00;;;;;;5071957;28;20229;-62
2022/08/19 06:55:59;;;;;;;24.33;18.00;;;20.50;1.00;;;;;;5071473;28;20204;-63
2022/08/19 06:58:28;;;;;;;27.13;18.97;;;20.40;1.00;;;;;;5071693;28;20201;-61
2022/08/19 07:00:55;;;;;;;25.67;17.10;;;20.40;1.00;;;;;;5071668;28;20224;-62
2022/08/19 07:03:21;;;;;;;25.70;17.60;;;20.40;1.00;;;;;;5071425;28;20232;-62
2022/08/19 07:05:48;;;;;;;26.17;19.97;;;20.50;1.00;;;;;;5071645;28;20215;-61
2022/08/19 07:08:15;;;;;;;25.10;16.73;;;20.30;1.00;;;;;;5071287;28;20628;-62
2022/08/19 07:10:44;;;;;;;27.53;18.70;;;20.40;1.00;;;;;;5071281;28;20205;-61
2022/08/19 07:13:11;;;;;;;23.43;18.90;;;20.50;1.00;;;;;;5071105;28;20228;-62
2022/08/19 07:15:39;;;;;;;28.97;20.23;;;20.60;1.00;;;;;;5071212;28;20742;-62
2022/08/19 07:18:06;;;;;;;25.20;18.57;;;20.60;1.00;;;;;;5071397;28;20201;-62
2022/08/19 07:20:32;;;;;;;25.10;18.73;;;20.70;1.00;;;;;;5071409;28;20249;-61
2022/08/19 07:22:59;;;;;;;24.10;17.20;;;20.80;1.00;;;;;;5071293;28;20640;-61
2022/08/19 07:25:28;;;;;;;26.07;18.60;;;20.90;1.00;;;;;;5071458;28;20205;-62
2022/08/19 07:27:54;;;;;;;26.23;17.43;;;21.00;1.00;;;;;;5071151;28;20216;-62
2022/08/19 07:30:22;;;;;;;25.47;18.47;;;21.10;1.00;;;;;;5071541;28;20217;-61
2022/08/19 07:32:51;;;;;;;23.93;18.40;;;21.30;1.00;;;;;;5071333;28;20225;-61
2022/08/19 07:35:19;;;;;;;29.27;18.20;;;21.30;1.00;;;;;;5071389;28;20207;-61
2022/08/19 07:37:46;;;;;;;26.97;18.20;;;21.40;1.00;;;;;;5071010;28;20301;-61
2022/08/19 07:40:13;;;;;;;24.70;17.23;;;21.40;1.00;;;;;;5071900;28;20267;-59
2022/08/19 07:42:40;;;;;;;24.23;17.80;;;21.50;1.00;;;;;;5074799;28;20243;-57
2022/08/19 07:45:08;;;;;;;28.20;19.23;;;21.60;1.00;;;;;;5074588;28;20243;-61
2022/08/19 07:47:34;;;;;;;28.27;20.40;;;21.70;1.00;;;;;;5074299;28;20668;-60
2022/08/19 07:50:05;;;;;;;26.33;19.53;;;21.60;1.00;;;;;;5074673;28;20270;-60
2022/08/19 07:52:31;;;;;;;29.40;19.50;;;21.80;1.00;;;;;;5074650;28;20259;-62
2022/08/19 07:54:59;;;;;;;23.43;17.60;;;21.70;1.00;;;;;;5074643;28;20225;-62
2022/08/19 07:57:26;;;;;;;25.93;18.23;;;21.80;1.00;;;;;;5074338;28;20209;-62
2022/08/19 07:59:53;;;;;;;28.90;19.63;;;21.60;1.00;;;;;;5074541;28;20609;-62
2022/08/19 08:02:19;;;;;;;25.70;17.70;;;21.60;1.00;;;;;;5074654;28;20279;-60
2022/08/19 08:10:16;;;;;;;21.83;16.93;;;21.80;1.00;;;;;;5074074;28;20212;-62
2022/08/19 08:12:43;;;;;;;25.27;17.30;;;21.90;1.00;;;;;;5074290;28;20274;-62
2022/08/19 08:15:16;;;;;;;23.60;17.17;;;22.00;1.00;;;;;;5074085;28;20298;-62
2022/08/19 08:17:43;;;;;;;28.03;17.80;;;22.10;1.00;;;;;;5073772;28;20224;-63
2022/08/19 08:20:11;;;;;;;24.13;18.37;;;22.30;1.00;;;;;;5074030;28;20213;-63
2022/08/19 08:25:29;;;;;;;25.17;18.60;;;22.30;1.00;;;;;;5074303;28;20703;-64
2022/08/19 08:27:58;;;;;;;28.10;20.17;;;22.40;99.90;;;;;;5073452;28;20205;-64
2022/08/19 08:30:29;;;;;;;23.97;18.90;;;22.50;99.90;;;;;;5073134;28;20636;-63
2022/08/19 08:32:56;;;;;;;25.87;19.07;;;22.50;99.90;;;;;;5073429;28;20279;-63
2022/08/19 08:35:24;;;;;;;26.97;19.43;;;22.70;1.00;;;;;;5073589;28;20225;-64
2022/08/19 08:37:55;;;;;;;36.73;21.10;;;22.70;99.90;;;;;;5072869;28;20733;-63
2022/08/19 08:40:27;;;;;;;30.00;20.50;;;22.80;99.90;;;;;;5073842;28;20209;-63
2022/08/19 08:43:00;;;;;;;29.83;22.60;;;22.80;99.90;;;;;;5073701;28;20233;-63
2022/08/19 08:45:28;;;;;;;37.87;22.20;;;22.90;99.90;;;;;;5073424;28;20659;-63
2022/08/19 08:48:01;;;;;;;30.00;21.63;;;22.90;99.90;;;;;;5073527;28;20209;-64
2022/08/19 08:50:36;;;;;;;31.87;22.90;;;23.10;99.90;;;;;;5073893;28;20266;-64
2022/08/19 08:53:06;;;;;;;30.50;23.03;;;23.30;99.90;;;;;;5073388;28;20316;-64
2022/08/19 08:55:33;;;;;;;31.00;24.47;;;23.40;6.60;;;;;;5073507;28;20711;-64
2022/08/19 08:58:05;;;;;;;30.87;24.13;;;23.50;1.00;;;;;;5073059;28;20205;-63
2022/08/19 09:00:37;;;;;;;33.97;25.53;;;23.50;99.90;;;;;;5073870;28;20262;-63
2022/08/19 09:03:06;;;;;;;36.77;27.33;;;23.50;68.50;;;;;;5073261;28;20259;-64
2022/08/19 09:05:42;;;;;;;36.40;26.80;;;23.30;1.00;;;;;;5073635;28;20201;-64
2022/08/19 09:08:17;;;;;;;33.07;24.27;;;23.40;17.90;;;;;;5072940;28;20251;-64
2022/08/19 09:10:49;;;;;;;34.13;24.67;;;23.60;99.90;;;;;;5073326;28;20254;-64
2022/08/19 09:13:27;;;;;;;33.83;23.53;;;23.70;47.80;;;;;;5072894;28;20772;-64
2022/08/19 09:15:59;;;;;;;32.50;25.23;;;24.00;99.90;;;;;;5072981;28;20207;-64
2022/08/19 09:18:26;;;;;;;30.53;25.43;;;24.10;99.90;;;;;;5072921;28;20635;-64
2022/08/19 09:20:52;;;;;;;31.30;24.83;;;24.20;99.90;;;;;;5072771;28;20266;-64
2022/08/19 09:23:21;;;;;;;29.33;23.87;;;24.40;70.60;;;;;;5073019;28;20647;-64
2022/08/19 09:25:47;;;;;;;35.47;26.67;;;24.40;3.40;;;;;;5073032;28;20200;-64
2022/08/19 09:28:14;;;;;;;33.00;24.90;;;24.40;1.00;;;;;;5072356;28;20205;-63
2022/08/19 09:30:42;;;;;;;31.87;23.37;;;24.60;1.00;;;;;;5072957;28;20625;-64
2022/08/19 09:33:09;;;;;;;34.80;25.07;;;24.50;1.00;;;;;;5072631;28;20224;-64
2022/08/19 09:35:36;;;;;;;28.77;22.73;;;24.80;1.00;;;;;;5072588;28;20600;-64
2022/08/19 09:38:03;;;;;;;30.90;23.13;;;24.80;1.00;;;;;;5072423;28;20213;-64
2022/08/19 09:40:31;;;;;;;27.33;21.80;;;24.50;99.90;;;;;;5072817;28;20236;-64
2022/08/19 09:43:02;;;;;;;27.37;20.43;;;24.50;99.90;;;;;;5072730;28;20312;-65
2022/08/19 09:45:29;;;;;;;25.17;18.73;;;24.40;99.90;;;;;;5060876;28;20223;-67
2022/08/19 09:47:57;;;;;;;25.57;19.50;;;24.50;99.90;;;;;;5071055;28;20209;-67
2022/08/19 09:50:24;;;;;;;30.40;21.23;;;24.50;99.90;;;;;;5072118;28;20262;-65
2022/08/19 09:52:53;;;;;;;29.10;19.53;;;24.60;99.90;;;;;;5072280;28;20225;-64
2022/08/19 09:55:19;;;;;;;23.90;18.87;;;24.50;99.90;;;;;;5071315;28;20316;-64
2022/08/19 09:57:47;;;;;;;30.03;18.80;;;24.60;99.90;;;;;;5071698;28;20208;-64
2022/08/19 10:00:15;;;;;;;23.60;17.10;;;24.80;99.90;;;;;;5071978;28;20255;-63
2022/08/19 10:02:44;;;;;;;20.50;17.57;;;24.90;99.90;;;;;;5071246;28;20711;-64
2022/08/19 10:07:55;;;;;;;23.37;18.60;;;24.90;99.90;;;;;;5072370;28;20236;-64
2022/08/19 10:10:22;;;;;;;20.37;15.87;;;25.00;99.90;;;;;;5072575;28;20232;-64
2022/08/19 10:12:50;;;;;;;23.90;18.70;;;25.00;99.90;;;;;;5071718;28;20271;-63
2022/08/19 10:15:20;;;;;;;21.37;16.63;;;25.00;99.90;;;;;;5071114;28;20221;-63
2022/08/19 10:17:47;;;;;;;18.10;15.10;;;25.10;99.90;;;;;;5071829;28;20765;-62
2022/08/19 10:20:14;;;;;;;21.43;15.77;;;25.30;99.90;;;;;;5071643;28;20216;-63
2022/08/19 10:22:43;;;;;;;17.13;13.93;;;25.20;99.90;;;;;;5071258;28;20224;-64
2022/08/19 10:25:10;;;;;;;18.07;14.00;;;25.00;99.90;;;;;;5071480;28;20254;-63
2022/08/19 10:27:37;;;;;;;19.10;14.23;;;24.80;99.90;;;;;;5070913;28;20287;-64
2022/08/19 10:30:06;;;;;;;17.37;13.77;;;24.80;99.90;;;;;;5071659;28;20204;-65
2022/08/19 10:32:33;;;;;;;22.00;15.10;;;24.80;99.90;;;;;;5071625;28;20236;-65
2022/08/19 10:35:00;;;;;;;20.17;16.77;;;24.90;99.90;;;;;;5071117;28;20278;-63
2022/08/19 10:37:27;;;;;;;20.13;16.13;;;24.50;99.90;;;;;;5071139;28;20209;-63
2022/08/19 10:39:54;;;;;;;19.13;15.60;;;24.50;99.90;;;;;;5069861;28;20258;-65
2022/08/19 10:42:20;;;;;;;21.63;16.33;;;24.50;99.90;;;;;;5071190;28;20228;-65
2022/08/19 10:44:47;;;;;;;23.63;16.00;;;24.50;99.90;;;;;;5070745;28;20262;-66
2022/08/19 10:47:16;;;;;;;18.47;15.13;;;24.60;99.90;;;;;;5070831;28;20208;-66
2022/08/19 10:52:36;;;;;;;15.87;13.03;;;24.50;99.90;;;;;;5071198;28;20227;-65
2022/08/19 10:57:48;;;;;;;17.20;13.10;;;24.50;99.90;;;;;;5070934;28;20200;-65
2022/08/19 11:00:15;;;;;;;14.27;12.10;;;24.60;99.90;;;;;;5070787;28;20634;-65
2022/08/19 11:02:44;;;;;;;13.03;10.80;;;24.70;99.90;;;;;;5071014;28;20270;-65
2022/08/19 11:05:11;;;;;;;15.57;12.27;;;25.00;99.90;;;;;;5070547;28;20274;-66
2022/08/19 11:07:38;;;;;;;17.87;13.17;;;25.20;99.90;;;;;;5070608;28;20737;-66
2022/08/19 11:10:06;;;;;;;17.30;15.33;;;25.20;99.90;;;;;;5071142;28;20205;-66
2022/08/19 11:12:33;;;;;;;16.27;13.30;;;25.20;99.90;;;;;;5070980;28;20225;-66
2022/08/19 11:15:00;;;;;;;16.57;13.30;;;25.60;99.90;;;;;;5072740;28;20308;-67
2022/08/19 11:17:26;;;;;;;15.63;13.13;;;25.90;99.90;;;;;;5074347;28;20587;-66
2022/08/19 11:19:54;;;;;;;15.73;12.60;;;26.20;99.90;;;;;;5070625;28;20890;-66
2022/08/19 11:22:21;;;;;;;15.80;12.53;;;26.50;99.90;;;;;;5074912;28;20295;-67
2022/08/19 11:24:48;;;;;;;18.20;14.03;;;26.70;99.90;;;;;;5075650;28;20209;-67
2022/08/19 11:27:14;;;;;;;17.73;14.10;;;26.80;99.90;;;;;;5074113;28;20205;-66
2022/08/19 11:29:41;;;;;;;17.80;13.53;;;27.00;99.90;;;;;;5074427;28;20204;-66
2022/08/19 11:32:10;;;;;;;18.20;14.63;;;27.20;99.90;;;;;;5074337;28;20221;-67
2022/08/19 11:34:37;;;;;;;19.33;15.10;;;27.30;99.90;;;;;;5074687;28;20317;-66
2022/08/19 11:37:06;;;;;;;17.67;13.60;;;27.00;99.90;;;;;;5074250;28;20270;-64
2022/08/19 11:39:35;;;;;;;16.13;14.00;;;26.80;99.90;;;;;;5074540;28;20266;-68
2022/08/19 11:42:02;;;;;;;17.10;13.87;;;26.40;99.90;;;;;;5073636;28;20286;-66
2022/08/19 11:44:30;;;;;;;14.93;13.07;;;26.00;99.90;;;;;;5074051;28;20224;-67
2022/08/19 11:46:57;;;;;;;17.10;12.37;;;25.80;99.90;;;;;;5073514;28;20588;-65
2022/08/19 11:49:24;;;;;;;18.17;13.67;;;25.90;99.90;;;;;;5074196;28;20621;-66
2022/08/19 11:51:50;;;;;;;20.77;12.90;;;25.50;99.90;;;;;;5072382;28;20254;-65
2022/08/19 11:54:18;;;;;;;15.77;13.20;;;25.50;99.90;;;;;;5073972;28;20201;-66
2022/08/19 11:56:47;;;;;;;16.00;12.67;;;25.70;99.90;;;;;;5073515;28;20212;-66
2022/08/19 11:59:14;;;;;;;16.23;11.90;;;25.80;99.90;;;;;;5070908;28;20270;-67
2022/08/19 12:01:42;;;;;;;18.27;11.83;;;26.00;99.90;;;;;;5074012;28;20240;-66
2022/08/19 12:04:09;;;;;;;16.97;14.43;;;26.20;99.90;;;;;;5073926;28;20204;-65
2022/08/19 12:06:40;;;;;;;16.90;13.93;;;26.20;99.90;;;;;;5073010;28;20209;-65
2022/08/19 12:09:08;;;;;;;14.17;12.17;;;26.50;99.90;;;;;;5074117;28;20270;-66
2022/08/19 12:11:37;;;;;;;12.97;11.33;;;26.70;99.90;;;;;;5073840;28;20215;-67
2022/08/19 12:14:04;;;;;;;14.27;10.60;;;26.80;99.90;;;;;;5073363;28;20233;-67
2022/08/19 12:16:32;;;;;;;13.77;11.57;;;26.90;99.90;;;;;;5073308;28;20247;-66
2022/08/19 12:19:03;;;;;;;14.47;10.97;;;26.60;99.90;;;;;;5073504;28;20660;-66
2022/08/19 12:21:30;;;;;;;16.93;11.00;;;26.70;99.90;;;;;;5073665;28;20239;-65
2022/08/19 12:23:59;;;;;;;16.07;10.80;;;26.70;99.90;;;;;;5073187;28;20312;-65
2022/08/19 12:26:28;;;;;;;11.57;9.67;;;26.70;99.90;;;;;;5072198;28;20251;-65
2022/08/19 12:28:58;;;;;;;12.23;10.37;;;26.70;99.90;;;;;;5073331;28;20205;-66
2022/08/19 12:31:25;;;;;;;11.43;9.07;;;26.70;99.90;;;;;;5073612;28;20211;-65
2022/08/19 12:33:52;;;;;;;9.73;7.77;;;26.50;99.90;;;;;;5073453;28;20225;-65
2022/08/19 12:36:19;;;;;;;10.53;7.77;;;26.40;99.90;;;;;;5072352;28;20324;-65
2022/08/19 12:38:46;;;;;;;10.40;7.67;;;26.40;99.90;;;;;;5072795;28;20205;-65
2022/08/19 12:41:17;;;;;;;14.90;7.43;;;26.70;99.90;;;;;;5073090;28;20212;-65
2022/08/19 12:43:43;;;;;;;14.20;8.10;;;27.00;99.90;;;;;;5073208;28;20263;-66
2022/08/19 12:46:12;;;;;;;11.17;9.40;;;27.20;99.90;;;;;;5072690;28;20197;-65
2022/08/19 12:48:41;;;;;;;8.97;7.63;;;27.10;99.90;;;;;;5073171;28;20208;-65
2022/08/19 12:51:10;;;;;;;9.73;8.33;;;27.10;99.90;;;;;;5072854;28;20209;-66
2022/08/19 12:53:37;;;;;;;12.17;8.97;;;27.30;99.90;;;;;;5072787;28;20232;-66
2022/08/19 12:56:04;;;;;;;10.37;8.00;;;27.20;99.90;;;;;;5072214;28;20232;-66
2022/08/19 12:58:32;;;;;;;12.23;8.67;;;26.80;99.90;;;;;;5072950;28;20270;-66
2022/08/19 13:00:58;;;;;;;10.97;7.67;;;26.60;99.90;;;;;;5072990;28;20205;-66
2022/08/19 13:03:29;;;;;;;9.77;8.40;;;26.60;99.90;;;;;;5072778;28;20251;-66
2022/08/19 13:05:56;;;;;;;11.70;8.33;;;25.90;99.90;;;;;;5072102;28;20228;-66